Time;durP1;ratioP1;P1;durP2;ratioP2;P2;SDS_P1;SDS_P2;PMS_P1;PMS_P2;Temp;Humidity;BMP_temperature;BMP_pressure;BME280_temperature;BME280_humidity;BME280_pressure;Samples;Min_cycle;Max_cycle;Signal;HPM_P1;HPM_P2
2021/09/11 00:00:59;;;;;;;2.13;1.92;;;;;;;23.91;59.15;100071.88;2059150;28;20022;-42
2021/09/11 00:01:59;;;;;;;2.55;2.35;;;;;;;23.91;59.09;100066.38;2064071;28;20036;-40
2021/09/11 00:03:01;;;;;;;1.93;1.83;;;;;;;23.90;59.09;100070.16;2057035;28;20029;-42
2021/09/11 00:04:01;;;;;;;2.20;2.00;;;;;;;23.90;59.08;100064.63;2063939;28;20095;-42
2021/09/11 00:05:02;;;;;;;2.30;2.10;;;;;;;23.91;59.10;100071.00;2059616;28;20471;-42
2021/09/11 00:06:03;;;;;;;2.33;2.03;;;;;;;23.89;59.43;100065.69;2057754;28;20263;-42
2021/09/11 00:07:03;;;;;;;2.47;2.20;;;;;;;23.89;59.11;100065.69;2060838;28;20025;-42
2021/09/11 00:08:04;;;;;;;2.30;2.10;;;;;;;23.90;58.99;100070.16;2056807;28;20145;-42
2021/09/11 00:09:05;;;;;;;2.53;2.27;;;;;;;23.90;59.10;100063.78;2057462;28;20037;-41
2021/09/11 00:10:08;;;;;;;2.40;2.20;;;;;;;23.92;59.07;100056.22;2065005;28;20985;-41
2021/09/11 00:11:08;;;;;;;2.00;1.80;;;;;;;23.91;58.99;100062.75;2055675;28;20038;-47
2021/09/11 00:12:09;;;;;;;2.20;2.00;;;;;;;23.91;59.05;100059.97;2060975;28;20025;-47
2021/09/11 00:13:10;;;;;;;2.20;2.00;;;;;;;23.92;59.06;100061.72;2058653;28;20118;-47
2021/09/11 00:14:10;;;;;;;2.70;2.50;;;;;;;23.91;59.06;100063.63;2059956;28;20045;-47
2021/09/11 00:15:14;;;;;;;2.57;2.37;;;;;;;23.90;59.01;100059.13;2057597;28;20052;-47
2021/09/11 00:16:15;;;;;;;2.58;2.38;;;;;;;23.90;59.08;100056.38;2057173;28;20310;-47
2021/09/11 00:17:15;;;;;;;2.83;2.60;;;;;;;23.90;59.02;100059.13;2059439;28;20061;-47
2021/09/11 00:18:16;;;;;;;2.50;2.30;;;;;;;23.90;59.03;100055.53;2056805;28;20036;-47
2021/09/11 00:19:16;;;;;;;2.63;2.43;;;;;;;23.89;59.04;100057.44;2064192;28;20063;-47
2021/09/11 00:20:17;;;;;;;2.00;1.80;;;;;;;23.90;58.98;100052.78;2058280;28;20030;-41
2021/09/11 00:21:17;;;;;;;2.40;2.20;;;;;;;23.90;58.97;100064.63;2061977;28;20107;-42
2021/09/11 00:22:18;;;;;;;2.37;2.17;;;;;;;23.91;58.97;100055.38;2055608;28;20850;-42
2021/09/11 00:23:18;;;;;;;2.33;2.10;;;;;;;23.90;58.98;100050.03;2060170;28;20288;-42
2021/09/11 00:24:19;;;;;;;2.07;1.87;;;;;;;23.89;58.96;100051.94;2059468;28;20566;-41
2021/09/11 00:25:19;;;;;;;2.23;2.03;;;;;;;23.89;59.08;100051.06;2057598;28;20671;-42
2021/09/11 00:26:20;;;;;;;2.60;2.40;;;;;;;23.87;58.98;100045.75;2052629;28;20022;-42
2021/09/11 00:27:20;;;;;;;4.10;2.47;;;;;;;23.88;58.97;100046.59;2058062;28;20139;-42
2021/09/11 00:28:20;;;;;;;2.50;2.30;;;;;;;23.88;59.02;100052.94;2057271;28;20042;-42
2021/09/11 00:29:21;;;;;;;2.50;2.30;;;;;;;23.88;59.12;100047.44;2060015;28;20025;-42
2021/09/11 00:30:22;;;;;;;2.63;2.20;;;;;;;23.88;59.06;100044.69;2066812;28;20471;-42
2021/09/11 00:31:22;;;;;;;2.43;2.23;;;;;;;23.89;58.96;100046.44;2056577;28;20026;-42
2021/09/11 00:32:22;;;;;;;2.17;1.97;;;;;;;23.88;59.09;100047.44;2060043;28;20781;-42
2021/09/11 00:33:23;;;;;;;2.20;1.97;;;;;;;23.88;58.97;100047.44;2057252;28;20468;-42
2021/09/11 00:34:23;;;;;;;2.83;2.50;;;;;;;23.89;58.97;100051.94;2056992;28;20033;-41
2021/09/11 00:35:24;;;;;;;2.53;2.33;;;;;;;23.88;59.17;100047.44;2065771;28;20165;-42
2021/09/11 00:36:24;;;;;;;2.43;2.23;;;;;;;23.89;59.08;100051.06;2060088;28;20145;-42
2021/09/11 00:37:25;;;;;;;2.13;1.93;;;;;;;23.90;59.03;100050.03;2059141;28;20736;-41
2021/09/11 00:38:25;;;;;;;2.00;1.90;;;;;;;23.89;59.11;100046.44;2057370;28;20069;-42
2021/09/11 00:39:26;;;;;;;2.33;2.13;;;;;;;23.89;59.14;100051.06;2057670;28;20770;-42
2021/09/11 00:40:26;;;;;;;2.10;1.83;;;;;;;23.88;59.09;100049.34;2058626;28;20030;-42
2021/09/11 00:41:27;;;;;;;2.43;2.23;;;;;;;23.88;59.10;100050.19;2059677;28;20049;-42
2021/09/11 00:42:27;;;;;;;2.40;1.87;;;;;;;23.89;59.07;100051.94;2059334;28;20025;-42
2021/09/11 00:43:28;;;;;;;2.10;1.90;;;;;;;23.88;59.00;100044.69;2058282;28;20064;-42
2021/09/11 00:44:29;;;;;;;2.30;2.10;;;;;;;23.89;59.07;100046.44;2063477;28;20034;-42
2021/09/11 00:45:30;;;;;;;2.35;2.15;;;;;;;23.88;59.00;100052.94;2059072;28;20034;-42
2021/09/11 00:46:30;;;;;;;2.10;1.90;;;;;;;23.89;59.12;100051.94;2058201;28;20100;-47
2021/09/11 00:47:31;;;;;;;1.73;1.60;;;;;;;23.89;59.04;100049.19;2058678;28;20103;-47
2021/09/11 00:48:31;;;;;;;2.00;1.80;;;;;;;23.89;58.94;100045.56;2058293;28;20748;-47
2021/09/11 00:49:32;;;;;;;2.67;2.47;;;;;;;23.89;58.96;100046.44;2060049;28;20037;-42
2021/09/11 00:50:33;;;;;;;2.20;2.00;;;;;;;23.87;59.09;100043.00;2059194;28;21046;-42
2021/09/11 00:51:33;;;;;;;2.30;2.10;;;;;;;23.89;59.07;100051.94;2059006;28;20293;-42
2021/09/11 00:52:34;;;;;;;2.50;2.30;;;;;;;23.90;58.99;100048.13;2059652;28;20423;-42
2021/09/11 00:53:34;;;;;;;2.07;1.90;;;;;;;23.90;59.05;100048.13;2059871;28;20025;-42
2021/09/11 00:54:35;;;;;;;2.13;1.93;;;;;;;23.88;59.06;100055.69;2059653;28;20026;-42
2021/09/11 00:55:37;;;;;;;2.07;1.87;;;;;;;23.89;58.94;100051.94;2060673;28;20029;-42
2021/09/11 00:56:37;;;;;;;3.08;2.15;;;;;;;23.88;59.05;100049.34;2054670;28;20030;-41
2021/09/11 00:57:41;;;;;;;2.17;1.97;;;;;;;23.86;58.93;100046.78;2060097;28;20045;-42
2021/09/11 00:58:42;;;;;;;2.25;2.00;;;;;;;23.86;59.17;100046.78;2062000;28;20079;-40
2021/09/11 00:59:43;;;;;;;3.30;2.10;;;;;;;23.86;59.04;100046.78;2063709;28;20054;-42
2021/09/11 01:00:44;;;;;;;2.00;1.80;;;;;;;23.87;59.08;100042.16;2056287;28;20421;-42
2021/09/11 01:01:44;;;;;;;2.47;2.20;;;;;;;23.87;59.02;100045.75;2075690;28;20037;-42
2021/09/11 01:02:45;;;;;;;2.13;1.93;;;;;;;23.86;59.11;100046.78;2065265;28;20112;-42
2021/09/11 01:03:45;;;;;;;2.70;2.27;;;;;;;23.87;59.09;100043.00;2063000;28;20040;-42
2021/09/11 01:04:46;;;;;;;2.73;2.40;;;;;;;23.87;59.04;100048.50;2058557;28;20121;-42
2021/09/11 01:05:47;;;;;;;2.13;1.90;;;;;;;23.89;58.94;100054.69;2061873;28;20700;-42
2021/09/11 01:06:48;;;;;;;2.10;1.92;;;;;;;23.88;59.06;100047.44;2056545;28;20438;-41
2021/09/11 01:07:49;;;;;;;2.73;2.53;;;;;;;23.88;59.03;100050.19;2057575;28;20117;-45
2021/09/11 01:08:51;;;;;;;2.15;1.83;;;;;;;23.87;59.00;100044.91;2058228;28;20171;-42
2021/09/11 01:09:53;;;;;;;2.25;1.90;;;;;;;23.88;59.16;100050.19;2055304;28;20247;-42
2021/09/11 01:10:53;;;;;;;;;;;;;;;23.83;59.22;100051.78;2057965;28;20108;-42
2021/09/11 01:11:54;;;;;;;2.13;1.92;;;;;;;23.84;59.07;100054.38;2059757;28;19948;-41
2021/09/11 01:12:55;;;;;;;2.50;2.30;;;;;;;23.85;59.14;100056.06;2060410;28;20399;-41
2021/09/11 01:13:57;;;;;;;2.00;1.80;;;;;;;23.85;59.08;100060.72;2059531;28;20319;-41
2021/09/11 01:15:02;;;;;;;2.42;2.22;;;;;;;23.84;59.00;100054.38;2062749;28;20036;-41
2021/09/11 01:16:03;;;;;;;2.53;2.03;;;;;;;23.87;59.03;100062.25;2063470;28;21124;-41
2021/09/11 01:17:04;;;;;;;2.72;2.40;;;;;;;23.85;59.11;100058.81;2059545;28;20030;-41
2021/09/11 01:18:06;;;;;;;2.40;2.20;;;;;;;23.85;59.04;100056.06;2059209;28;20080;-41
2021/09/11 01:19:07;;;;;;;2.05;1.85;;;;;;;23.86;59.09;100052.31;2057774;28;20440;-41
2021/09/11 01:20:08;;;;;;;2.20;1.80;;;;;;;23.87;59.00;100059.50;2060134;28;20083;-41
2021/09/11 01:21:08;;;;;;;2.60;2.40;;;;;;;23.86;59.04;100049.56;2066787;28;20052;-42
2021/09/11 01:22:14;;;;;;;2.03;1.83;;;;;;;23.86;58.96;100057.81;2056739;28;20029;-41
2021/09/11 01:23:14;;;;;;;2.20;1.88;;;;;;;23.88;59.10;100061.22;2058473;28;20041;-41
2021/09/11 01:24:15;;;;;;;2.33;1.90;;;;;;;23.87;59.12;100059.50;2062095;28;20245;-41
2021/09/11 01:25:15;;;;;;;2.30;2.10;;;;;;;23.86;59.09;100052.31;2060403;28;20972;-41
2021/09/11 01:26:16;;;;;;;2.03;1.83;;;;;;;23.86;59.01;100052.31;2058782;28;20402;-41
2021/09/11 01:27:17;;;;;;;2.53;2.33;;;;;;;23.86;59.02;100057.81;2056951;28;20056;-41
2021/09/11 01:28:17;;;;;;;2.63;2.43;;;;;;;23.85;59.10;100056.06;2058187;28;20474;-41
2021/09/11 01:29:18;;;;;;;2.10;1.87;;;;;;;23.86;59.04;100057.81;2057761;28;20738;-41
2021/09/11 01:30:20;;;;;;;2.43;2.23;;;;;;;23.87;59.09;100064.16;2060055;28;20072;-41
2021/09/11 01:31:21;;;;;;;1.75;1.63;;;;;;;23.87;59.01;100062.25;2061745;28;20068;-41
2021/09/11 01:32:22;;;;;;;1.97;1.80;;;;;;;23.86;59.06;100063.31;2060759;28;20018;-42
2021/09/11 01:33:24;;;;;;;2.40;2.20;;;;;;;23.85;58.96;100057.97;2059900;28;20496;-41
2021/09/11 01:34:25;;;;;;;3.13;1.90;;;;;;;23.85;59.13;100058.81;2061691;28;20030;-42
2021/09/11 01:35:25;;;;;;;2.20;2.00;;;;;;;23.86;58.97;100066.06;2064934;28;20049;-41
2021/09/11 01:36:25;;;;;;;2.33;2.13;;;;;;;23.87;58.89;100069.66;2066026;28;20029;-41
2021/09/11 01:37:26;;;;;;;2.00;1.83;;;;;;;23.85;59.06;100061.59;2066149;28;20209;-41
2021/09/11 01:38:27;;;;;;;2.17;1.97;;;;;;;23.86;59.03;100057.81;2058304;28;20120;-41
2021/09/11 01:39:27;;;;;;;2.20;2.00;;;;;;;23.85;58.99;100058.81;2061471;28;20041;-41
2021/09/11 01:40:28;;;;;;;2.10;1.90;;;;;;;23.86;59.05;100057.81;2054174;28;20058;-41
2021/09/11 01:41:29;;;;;;;2.20;2.00;;;;;;;23.86;58.99;100057.81;2061181;28;20035;-41
2021/09/11 01:42:29;;;;;;;2.87;2.37;;;;;;;23.86;59.01;100060.56;2060020;28;20033;-41
2021/09/11 01:43:31;;;;;;;2.00;1.90;;;;;;;23.87;59.05;100059.50;2056324;28;20519;-41
2021/09/11 01:44:32;;;;;;;2.22;2.03;;;;;;;23.86;59.05;100044.03;2059470;28;20080;-41
2021/09/11 01:45:32;;;;;;;2.10;1.90;;;;;;;23.85;58.98;100056.06;2058154;28;20033;-42
2021/09/11 01:46:33;;;;;;;2.63;2.03;;;;;;;23.85;58.90;100061.59;2063355;28;20057;-41
2021/09/11 01:47:34;;;;;;;2.30;2.10;;;;;;;23.86;59.06;100049.56;2063534;28;20408;-42
2021/09/11 01:48:34;;;;;;;2.13;1.93;;;;;;;23.86;59.08;100057.81;2055190;28;20028;-42
2021/09/11 01:49:34;;;;;;;1.93;1.80;;;;;;;23.85;59.02;100050.56;2066137;28;20033;-42
2021/09/11 01:50:35;;;;;;;1.80;1.70;;;;;;;23.84;58.93;100051.63;2058985;28;20044;-41
2021/09/11 01:51:45;;;;;;;1.77;1.57;;;;;;;23.84;59.08;100054.38;2060748;28;20121;-41
2021/09/11 01:52:47;;;;;;;2.08;1.83;;;;;;;23.84;59.06;100054.38;2063629;28;20275;-46
2021/09/11 01:53:47;;;;;;;1.75;1.63;;;;;;;23.84;59.14;100057.13;2061012;28;20661;-42
2021/09/11 01:54:47;;;;;;;2.40;1.83;;;;;;;23.85;59.03;100061.59;2061506;28;20029;-42
2021/09/11 01:55:48;;;;;;;2.37;2.10;;;;;;;23.85;59.05;100056.06;2060234;28;20454;-41
2021/09/11 01:56:49;;;;;;;1.90;1.77;;;;;;;23.86;58.99;100051.41;2062778;28;20873;-42
2021/09/11 01:57:49;;;;;;;1.80;1.70;;;;;;;23.85;59.06;100049.72;2059385;28;20105;-42
2021/09/11 01:58:49;;;;;;;2.13;1.70;;;;;;;23.85;59.12;100056.06;2058684;28;20468;-42
2021/09/11 01:59:50;;;;;;;2.17;1.73;;;;;;;23.85;59.03;100045.06;2062373;28;20470;-42
2021/09/11 02:00:50;;;;;;;2.10;1.90;;;;;;;23.86;58.93;100057.81;2058791;28;20033;-42
2021/09/11 02:01:51;;;;;;;2.13;1.93;;;;;;;23.84;59.11;100043.38;2062106;28;20034;-42
2021/09/11 02:02:51;;;;;;;2.57;2.37;;;;;;;23.84;59.07;100043.38;2059813;28;20021;-42
2021/09/11 02:03:52;;;;;;;2.50;2.30;;;;;;;23.85;59.12;100050.56;2059506;28;20750;-42
2021/09/11 02:04:52;;;;;;;2.37;1.83;;;;;;;23.83;59.00;100041.63;2059077;28;20395;-42
2021/09/11 02:05:53;;;;;;;2.23;2.03;;;;;;;23.84;59.04;100043.38;2061302;28;20060;-41
2021/09/11 02:06:53;;;;;;;2.13;1.90;;;;;;;23.84;59.06;100040.63;2058968;28;20037;-43
2021/09/11 02:07:53;;;;;;;2.23;1.60;;;;;;;23.84;59.12;100051.63;2067580;28;20034;-42
2021/09/11 02:08:54;;;;;;;1.67;1.57;;;;;;;23.83;59.15;100047.13;2059932;28;20060;-42
2021/09/11 02:09:54;;;;;;;1.73;1.63;;;;;;;23.84;59.04;100054.38;2054998;28;20724;-42
2021/09/11 02:10:56;;;;;;;2.40;2.20;;;;;;;23.84;59.09;100053.53;2064089;28;20398;-42
2021/09/11 02:11:57;;;;;;;2.65;1.85;;;;;;;23.83;59.14;100058.16;2060158;28;20329;-42
2021/09/11 02:12:58;;;;;;;2.03;1.83;;;;;;;23.83;59.11;100058.16;2056913;28;20065;-42
2021/09/11 02:13:59;;;;;;;2.28;2.05;;;;;;;23.83;59.01;100041.63;2061431;28;20025;-42
2021/09/11 02:14:59;;;;;;;2.50;2.10;;;;;;;23.83;59.09;100052.66;2056529;28;20075;-42
2021/09/11 02:16:02;;;;;;;1.77;1.67;;;;;;;23.84;58.90;100059.03;2066023;28;20023;-42
2021/09/11 02:17:03;;;;;;;2.13;1.95;;;;;;;23.84;59.05;100054.38;2066884;28;20141;-42
2021/09/11 02:18:04;;;;;;;2.17;1.98;;;;;;;23.84;59.21;100059.03;2053480;28;20238;-42
2021/09/11 02:19:05;;;;;;;2.33;2.13;;;;;;;23.83;59.04;100051.78;2070143;28;20036;-42
2021/09/11 02:20:07;;;;;;;1.90;1.80;;;;;;;23.84;59.16;100059.03;2057055;28;20021;-41
2021/09/11 02:21:07;;;;;;;2.17;1.73;;;;;;;23.84;59.04;100059.03;2062137;28;20302;-42
2021/09/11 02:22:10;;;;;;;1.87;1.60;;;;;;;23.83;59.08;100052.66;2065383;28;20116;-42
2021/09/11 02:23:11;;;;;;;2.03;1.83;;;;;;;23.84;59.11;100057.13;2061429;28;20030;-42
2021/09/11 02:24:11;;;;;;;2.10;1.90;;;;;;;23.83;59.17;100058.16;2056941;28;20030;-42
2021/09/11 02:25:12;;;;;;;1.80;1.70;;;;;;;23.85;59.00;100060.72;2059345;28;20227;-42
2021/09/11 02:26:12;;;;;;;3.23;2.03;;;;;;;23.83;59.28;100063.66;2059081;28;20044;-42
2021/09/11 02:27:13;;;;;;;2.13;1.93;;;;;;;23.84;59.06;100054.38;2061644;28;20029;-42
2021/09/11 02:28:13;;;;;;;2.57;2.20;;;;;;;23.84;59.16;100065.38;2059843;28;20057;-41
2021/09/11 02:29:15;;;;;;;2.37;2.07;;;;;;;23.84;59.14;100059.88;2060016;28;20036;-42
2021/09/11 02:30:16;;;;;;;;;;;;;;;23.78;59.24;100059.75;2060591;28;20022;-42
2021/09/11 02:31:16;;;;;;;1.80;1.70;;;;;;;23.80;59.16;100061.28;2065744;28;20289;-42
2021/09/11 02:32:17;;;;;;;1.70;1.60;;;;;;;23.81;59.18;100059.38;2070187;28;20028;-42
2021/09/11 02:33:17;;;;;;;2.10;1.93;;;;;;;23.81;59.07;100060.22;2059690;28;20022;-42
2021/09/11 02:34:18;;;;;;;1.80;1.53;;;;;;;23.81;59.03;100060.22;2059449;28;20018;-42
2021/09/11 02:35:18;;;;;;;2.03;1.90;;;;;;;23.82;59.17;100056.44;2059567;28;20487;-42
2021/09/11 02:36:19;;;;;;;2.13;1.93;;;;;;;23.82;59.22;100061.09;2056880;28;20194;-42
2021/09/11 02:37:20;;;;;;;1.70;1.60;;;;;;;23.81;59.01;100060.22;2062073;28;20025;-42
2021/09/11 02:38:20;;;;;;;2.10;1.90;;;;;;;23.82;59.23;100066.59;2059236;28;20034;-42
2021/09/11 02:39:21;;;;;;;2.53;2.00;;;;;;;23.82;59.10;100061.94;2058969;28;20026;-42
2021/09/11 02:40:21;;;;;;;2.07;1.80;;;;;;;23.82;59.09;100058.34;2059559;28;20324;-42
2021/09/11 02:41:22;;;;;;;2.10;1.90;;;;;;;23.81;59.07;100051.97;2058022;28;20318;-42
2021/09/11 02:42:22;;;;;;;2.93;1.87;;;;;;;23.82;59.06;100056.44;2061585;28;20026;-41
2021/09/11 02:43:23;;;;;;;1.77;1.67;;;;;;;23.80;59.16;100064.03;2059448;28;20927;-42
2021/09/11 02:44:24;;;;;;;2.43;2.07;;;;;;;23.82;59.31;100055.59;2059981;28;20060;-42
2021/09/11 02:45:25;;;;;;;1.90;1.70;;;;;;;23.83;59.17;100063.66;2062198;28;20069;-42
2021/09/11 02:46:25;;;;;;;2.50;2.00;;;;;;;23.82;59.07;100059.19;2059763;28;20075;-42
2021/09/11 02:47:25;;;;;;;2.03;1.83;;;;;;;23.80;59.19;100058.53;2060450;28;20076;-42
2021/09/11 02:48:26;;;;;;;2.03;1.77;;;;;;;23.82;59.09;100061.09;2058610;28;20022;-42
2021/09/11 02:49:26;;;;;;;1.93;1.73;;;;;;;23.81;59.06;100054.72;2061861;28;20026;-42
2021/09/11 02:50:27;;;;;;;2.40;1.70;;;;;;;23.82;59.09;100061.94;2059906;28;20602;-42
2021/09/11 02:51:28;;;;;;;1.87;1.77;;;;;;;23.82;59.16;100056.44;2056991;28;20030;-42
2021/09/11 02:52:28;;;;;;;2.22;1.73;;;;;;;23.81;59.06;100049.22;2060348;28;20256;-42
2021/09/11 02:53:29;;;;;;;2.43;2.23;;;;;;;23.82;59.15;100061.09;2057695;28;20163;-42
2021/09/11 02:54:29;;;;;;;2.17;1.97;;;;;;;23.82;59.10;100050.09;2055401;28;20030;-42
2021/09/11 02:55:30;;;;;;;2.00;1.83;;;;;;;23.82;59.01;100052.84;2061676;28;20353;-42
2021/09/11 02:56:30;;;;;;;2.17;1.80;;;;;;;23.81;58.97;100043.72;2059306;28;20042;-42
2021/09/11 02:57:31;;;;;;;2.03;1.83;;;;;;;23.82;59.06;100039.09;2059895;28;20030;-42
2021/09/11 02:58:31;;;;;;;3.50;1.90;;;;;;;23.81;59.11;100046.47;2059475;28;21395;-42
2021/09/11 02:59:31;;;;;;;2.00;1.80;;;;;;;23.81;59.16;100042.84;2065015;28;20353;-42
2021/09/11 03:00:32;;;;;;;1.97;1.77;;;;;;;23.81;59.24;100042.84;2055947;28;20117;-42
2021/09/11 03:01:32;;;;;;;2.23;2.03;;;;;;;23.80;59.11;100039.25;2058892;28;20041;-42
2021/09/11 03:02:33;;;;;;;7.57;1.90;;;;;;;23.80;59.12;100041.16;2057067;28;20030;-42
2021/09/11 03:03:33;;;;;;;2.10;1.90;;;;;;;23.80;59.19;100042.00;2062711;28;20100;-41
2021/09/11 03:04:34;;;;;;;2.20;1.80;;;;;;;23.80;59.13;100042.00;2059668;28;20045;-47
2021/09/11 03:05:34;;;;;;;1.63;1.53;;;;;;;23.81;59.07;100040.94;2056912;28;20034;-47
2021/09/11 03:06:38;;;;;;;1.70;1.57;;;;;;;23.81;59.10;100038.19;2059109;28;20393;-47
2021/09/11 03:07:38;;;;;;;1.80;1.70;;;;;;;23.81;59.29;100037.34;2055024;28;20052;-42
2021/09/11 03:08:39;;;;;;;1.93;1.83;;;;;;;23.80;59.03;100036.50;2056443;28;20427;-42
2021/09/11 03:09:40;;;;;;;2.40;1.80;;;;;;;23.80;59.18;100042.00;2061166;28;20037;-42
2021/09/11 03:10:40;;;;;;;2.20;2.00;;;;;;;23.81;59.05;100046.47;2062605;28;20044;-42
2021/09/11 03:11:41;;;;;;;2.07;1.70;;;;;;;23.82;59.18;100034.44;2061186;28;20030;-42
2021/09/11 03:12:41;;;;;;;2.03;1.83;;;;;;;23.81;59.07;100038.19;2056432;28;20113;-42
2021/09/11 03:13:42;;;;;;;1.87;1.70;;;;;;;23.81;59.01;100037.34;2059643;28;20051;-41
2021/09/11 03:14:43;;;;;;;1.60;1.50;;;;;;;23.80;58.91;100031.00;2060611;28;20725;-42
2021/09/11 03:15:44;;;;;;;2.63;1.50;;;;;;;23.81;59.11;100027.19;2062238;28;20039;-42
2021/09/11 03:16:44;;;;;;;2.47;2.00;;;;;;;23.80;59.11;100025.50;2061781;28;20339;-40
2021/09/11 03:17:44;;;;;;;1.73;1.63;;;;;;;23.81;59.10;100037.34;2060365;28;20990;-43
2021/09/11 03:18:45;;;;;;;2.00;1.80;;;;;;;23.80;59.17;100033.75;2056958;28;20029;-41
2021/09/11 03:19:45;;;;;;;1.90;1.70;;;;;;;23.80;59.13;100030.16;2057783;28;20026;-42
2021/09/11 03:20:49;;;;;;;1.70;1.60;;;;;;;23.79;59.19;100036.66;2062360;28;20075;-42
2021/09/11 03:21:49;;;;;;;2.42;1.75;;;;;;;23.80;59.06;100031.00;2059211;28;20026;-42
2021/09/11 03:22:49;;;;;;;2.57;1.97;;;;;;;23.79;59.21;100037.56;2059803;28;20065;-42
2021/09/11 03:23:50;;;;;;;2.17;1.80;;;;;;;23.79;59.18;100033.91;2055915;28;20049;-42
2021/09/11 03:24:50;;;;;;;1.90;1.70;;;;;;;23.79;59.13;100040.31;2057146;28;20042;-41
2021/09/11 03:25:51;;;;;;;1.63;1.53;;;;;;;23.80;59.09;100035.66;2060325;28;20517;-42
2021/09/11 03:26:51;;;;;;;2.00;1.80;;;;;;;23.79;59.07;100034.81;2060269;28;20029;-42
2021/09/11 03:27:51;;;;;;;1.77;1.60;;;;;;;23.78;59.03;100030.31;2059090;28;20037;-41
2021/09/11 03:28:52;;;;;;;2.00;1.80;;;;;;;23.80;59.18;100032.91;2056300;28;20053;-42
2021/09/11 03:29:53;;;;;;;2.07;1.67;;;;;;;23.80;59.10;100031.00;2060126;28;20528;-42
2021/09/11 03:30:53;;;;;;;1.73;1.63;;;;;;;23.80;59.16;100024.66;2063571;28;20033;-42
2021/09/11 03:31:54;;;;;;;2.03;1.83;;;;;;;23.80;59.08;100028.25;2058165;28;20037;-42
2021/09/11 03:32:55;;;;;;;3.03;2.20;;;;;;;23.79;59.11;100023.78;2058577;28;20034;-41
2021/09/11 03:33:56;;;;;;;2.50;1.92;;;;;;;23.79;59.17;100018.28;2063029;28;20337;-42
2021/09/11 03:34:56;;;;;;;2.23;1.90;;;;;;;23.79;59.19;100023.78;2060784;28;20044;-42
2021/09/11 03:35:57;;;;;;;2.00;1.80;;;;;;;23.78;59.21;100027.56;2057506;28;20030;-40
2021/09/11 03:36:57;;;;;;;3.20;1.80;;;;;;;23.78;59.12;100027.56;2056992;28;20344;-42
2021/09/11 03:37:58;;;;;;;2.07;1.90;;;;;;;23.78;59.05;100022.06;2064483;28;20315;-42
2021/09/11 03:38:58;;;;;;;1.73;1.60;;;;;;;23.78;59.15;100022.06;2058945;28;20037;-42
2021/09/11 03:39:59;;;;;;;1.73;1.50;;;;;;;23.79;59.09;100022.91;2058386;28;20461;-42
2021/09/11 03:40:59;;;;;;;1.90;1.60;;;;;;;23.78;59.08;100027.56;2057660;28;20037;-42
2021/09/11 03:41:59;;;;;;;1.70;1.60;;;;;;;23.78;59.05;100027.56;2057346;28;20044;-42
2021/09/11 03:43:00;;;;;;;2.20;1.53;;;;;;;23.78;59.09;100033.06;2056825;28;20583;-42
2021/09/11 03:44:00;;;;;;;1.87;1.63;;;;;;;23.79;59.17;100028.41;2055860;28;20046;-42
2021/09/11 03:45:01;;;;;;;2.13;2.00;;;;;;;23.79;59.19;100033.91;2055756;28;20040;-42
2021/09/11 03:46:02;;;;;;;2.30;1.50;;;;;;;23.78;59.18;100032.22;2064330;28;20034;-42
2021/09/11 03:47:02;;;;;;;1.90;1.70;;;;;;;23.78;59.10;100024.81;2056417;28;20285;-42
2021/09/11 03:48:03;;;;;;;1.93;1.83;;;;;;;23.78;59.18;100029.47;2057466;28;20060;-42
2021/09/11 03:49:03;;;;;;;2.93;1.63;;;;;;;23.79;59.03;100025.66;2063881;28;20029;-42
2021/09/11 03:50:05;;;;;;;1.53;1.40;;;;;;;23.79;59.16;100023.78;2059395;28;20034;-41
2021/09/11 03:51:07;;;;;;;1.88;1.70;;;;;;;23.79;59.03;100017.41;2059700;28;20444;-42
2021/09/11 03:52:07;;;;;;;2.00;1.70;;;;;;;23.77;59.03;100017.59;2059387;28;20054;-42
2021/09/11 03:53:08;;;;;;;2.10;1.87;;;;;;;23.78;59.18;100015.72;2060130;28;20479;-42
2021/09/11 03:54:08;;;;;;;3.53;1.80;;;;;;;23.79;59.00;100017.41;2058009;28;20403;-42
2021/09/11 03:55:09;;;;;;;1.90;1.70;;;;;;;23.77;59.07;100020.38;2059519;28;20037;-41
2021/09/11 03:56:10;;;;;;;2.50;2.30;;;;;;;23.77;59.17;100020.38;2058820;28;20026;-42
2021/09/11 03:57:10;;;;;;;2.13;1.73;;;;;;;23.77;59.09;100014.84;2065669;28;20105;-42
2021/09/11 03:58:10;;;;;;;1.57;1.47;;;;;;;23.78;58.96;100022.06;2058459;28;20044;-42
2021/09/11 03:59:11;;;;;;;2.63;1.70;;;;;;;23.76;59.10;100015.88;2059150;28;20080;-43
2021/09/11 04:00:12;;;;;;;1.77;1.40;;;;;;;23.77;59.17;100025.00;2064756;28;20681;-42
2021/09/11 04:01:12;;;;;;;1.70;1.60;;;;;;;23.78;59.18;100018.47;2061083;28;20117;-42
2021/09/11 04:02:13;;;;;;;2.20;1.90;;;;;;;23.77;59.12;100023.13;2061736;28;20857;-43
2021/09/11 04:03:13;;;;;;;1.50;1.40;;;;;;;23.77;59.04;100020.38;2059263;28;20030;-42
2021/09/11 04:04:13;;;;;;;2.10;1.90;;;;;;;23.76;59.08;100024.13;2062652;28;20163;-42
2021/09/11 04:05:14;;;;;;;1.60;1.50;;;;;;;23.77;59.24;100028.63;2059972;28;20068;-42
2021/09/11 04:06:14;;;;;;;1.97;1.77;;;;;;;23.77;59.13;100025.88;2059814;28;20022;-42
2021/09/11 04:07:15;;;;;;;2.80;1.63;;;;;;;23.77;59.11;100025.88;2057182;28;20425;-42
2021/09/11 04:08:15;;;;;;;1.67;1.57;;;;;;;23.77;59.22;100030.53;2059143;28;20022;-42
2021/09/11 04:09:16;;;;;;;1.80;1.60;;;;;;;23.77;59.20;100025.00;2067654;28;20748;-42
2021/09/11 04:10:16;;;;;;;1.67;1.57;;;;;;;23.77;59.10;100030.53;2066808;28;20047;-42
2021/09/11 04:11:17;;;;;;;1.70;1.60;;;;;;;23.76;59.03;100024.13;2057056;28;20044;-42
2021/09/11 04:12:17;;;;;;;1.90;1.70;;;;;;;23.76;59.21;100024.13;2056515;28;20022;-42
2021/09/11 04:13:18;;;;;;;1.50;1.40;;;;;;;23.77;59.05;100025.88;2058152;28;20165;-42
2021/09/11 04:14:18;;;;;;;2.00;1.83;;;;;;;23.77;59.11;100020.38;2058926;28;20018;-42
2021/09/11 04:15:19;;;;;;;1.60;1.50;;;;;;;23.77;59.26;100014.84;2059138;28;20049;-41
2021/09/11 04:16:19;;;;;;;2.00;1.80;;;;;;;23.77;59.02;100017.59;2061865;28;20128;-42
2021/09/11 04:17:20;;;;;;;1.67;1.40;;;;;;;23.76;59.18;100021.38;2056292;28;20034;-42
2021/09/11 04:18:21;;;;;;;1.60;1.50;;;;;;;23.75;59.05;100017.78;2063362;28;20104;-41
2021/09/11 04:19:21;;;;;;;1.60;1.50;;;;;;;23.75;59.20;100016.94;2057321;28;20041;-42
2021/09/11 04:20:21;;;;;;;3.00;1.83;;;;;;;23.74;59.06;100018.84;2056307;28;20905;-41
2021/09/11 04:21:22;;;;;;;1.90;1.70;;;;;;;23.76;59.17;100013.13;2063946;28;20080;-42
2021/09/11 04:22:23;;;;;;;1.40;1.30;;;;;;;23.75;59.19;100015.03;2058593;28;20022;-42
2021/09/11 04:23:23;;;;;;;1.60;1.50;;;;;;;23.76;59.20;100018.63;2053014;28;20042;-42
2021/09/11 04:24:23;;;;;;;1.83;1.73;;;;;;;23.75;59.05;100011.44;2051506;28;20578;-42
2021/09/11 04:25:24;;;;;;;3.37;2.20;;;;;;;23.75;59.09;100011.44;2057517;28;20068;-41
2021/09/11 04:26:24;;;;;;;2.03;1.70;;;;;;;23.74;59.16;100004.22;2063184;28;20025;-42
2021/09/11 04:27:25;;;;;;;1.77;1.40;;;;;;;23.74;59.17;100016.09;2058780;28;20536;-42
2021/09/11 04:28:25;;;;;;;1.40;1.30;;;;;;;23.75;59.16;100016.94;2059221;28;20037;-42
2021/09/11 04:29:26;;;;;;;1.70;1.60;;;;;;;23.74;59.06;100013.31;2052469;28;20122;-41
2021/09/11 04:30:26;;;;;;;1.60;1.50;;;;;;;23.74;59.22;100009.72;2057574;28;20624;-42
2021/09/11 04:31:26;;;;;;;1.73;1.63;;;;;;;23.74;59.14;100009.72;2064983;28;20288;-42
2021/09/11 04:32:27;;;;;;;1.97;1.77;;;;;;;23.74;59.08;100009.72;2055243;28;20653;-42
2021/09/11 04:33:27;;;;;;;2.23;1.80;;;;;;;23.75;59.05;100005.91;2057853;28;20033;-42
2021/09/11 04:34:28;;;;;;;2.13;1.53;;;;;;;23.74;59.14;99999.56;2059597;28;20045;-42
2021/09/11 04:35:30;;;;;;;1.83;1.73;;;;;;;23.74;59.31;100016.09;2055603;28;20092;-42
2021/09/11 04:36:30;;;;;;;1.90;1.73;;;;;;;23.75;59.14;100011.44;2062632;28;20055;-42
2021/09/11 04:37:31;;;;;;;1.67;1.57;;;;;;;23.74;59.02;100012.47;2058433;28;20706;-42
2021/09/11 04:38:31;;;;;;;2.27;1.70;;;;;;;23.73;59.16;100010.75;2059499;28;20049;-42
2021/09/11 04:39:32;;;;;;;1.80;1.70;;;;;;;23.74;59.08;100009.72;2059334;28;20096;-42
2021/09/11 04:40:32;;;;;;;2.23;1.83;;;;;;;23.74;59.12;100007.81;2054417;28;20104;-41
2021/09/11 04:41:33;;;;;;;2.27;2.07;;;;;;;23.74;59.12;100009.72;2063477;28;20030;-42
2021/09/11 04:42:33;;;;;;;1.50;1.40;;;;;;;23.73;59.29;100008.00;2054026;28;20041;-41
2021/09/11 04:43:34;;;;;;;1.63;1.40;;;;;;;23.73;59.12;99996.97;2059896;28;20068;-42